Terminal Aerodrome Forecast
Issued by NWS

Home | Current Version | Previous Version | Text Only | Print | Product List | Glossary On
Versions: 1 2 3 4 5 6 7 8 9 10 11 12 13 14 15 16 17 18 19 20 21 22 23 24
000
FTUS43 KABR 091720
TAFPIR
TAF
KPIR 091720Z 0918/1018 06009KT P6SM OVC025
      TEMPO 0918/0922 3SM -SN
     FM100100 VRB06KT P6SM BKN025
     FM101200 09010KT 6SM -SN OVC008
     FM101300 10011KT 3SM -SN OVC010
     FM101400 10012KT 1 1/2SM -SN OVC010=

USA.gov is the U.S. government's official web portal to all federal, state and local government web resources and services.